sensor_id;sensor_type;location;lat;lon;timestamp;pressure;altitude;pressure_sealevel;temperature;humidity
29383;BME280;16365;51.598;7.668;2023-07-24T00:00:22;99894.78;;;25.27;50.81
29383;BME280;16365;51.598;7.668;2023-07-24T00:02:49;99889.13;;;25.27;50.67
29383;BME280;16365;51.598;7.668;2023-07-24T00:05:16;99881.84;;;25.26;50.71
29383;BME280;16365;51.598;7.668;2023-07-24T00:07:42;99881.06;;;25.26;50.84
29383;BME280;16365;51.598;7.668;2023-07-24T00:10:10;99877.06;;;25.23;50.75
29383;BME280;16365;51.598;7.668;2023-07-24T00:12:37;99872.19;;;25.24;50.88
29383;BME280;16365;51.598;7.668;2023-07-24T00:15:08;99867.44;;;25.21;51.18
29383;BME280;16365;51.598;7.668;2023-07-24T00:17:35;99869.03;;;25.22;50.90
29383;BME280;16365;51.598;7.668;2023-07-24T00:20:05;99857.34;;;25.20;50.74
29383;BME280;16365;51.598;7.668;2023-07-24T00:22:32;99864.22;;;25.19;51.12
29383;BME280;16365;51.598;7.668;2023-07-24T00:24:58;99862.66;;;25.18;50.84
29383;BME280;16365;51.598;7.668;2023-07-24T00:27:25;99855.72;;;25.19;50.78
29383;BME280;16365;51.598;7.668;2023-07-24T00:29:52;99859.38;;;25.19;50.74
29383;BME280;16365;51.598;7.668;2023-07-24T00:32:18;99861.41;;;25.19;50.80
29383;BME280;16365;51.598;7.668;2023-07-24T00:34:45;99861.84;;;25.17;50.55
29383;BME280;16365;51.598;7.668;2023-07-24T00:37:11;99856.63;;;25.16;50.73
29383;BME280;16365;51.598;7.668;2023-07-24T00:39:38;99853.00;;;25.15;50.77
29383;BME280;16365;51.598;7.668;2023-07-24T00:42:05;99857.06;;;25.14;50.64
29383;BME280;16365;51.598;7.668;2023-07-24T00:44:31;99854.69;;;25.12;50.86
29383;BME280;16365;51.598;7.668;2023-07-24T00:46:58;99845.06;;;25.10;50.88
29383;BME280;16365;51.598;7.668;2023-07-24T00:49:25;99839.81;;;25.08;50.66
29383;BME280;16365;51.598;7.668;2023-07-24T00:51:52;99834.59;;;25.07;50.74
29383;BME280;16365;51.598;7.668;2023-07-24T00:54:19;99832.59;;;25.04;50.67
29383;BME280;16365;51.598;7.668;2023-07-24T00:56:46;99815.25;;;25.02;50.71
29383;BME280;16365;51.598;7.668;2023-07-24T00:59:14;99819.78;;;24.99;51.10
29383;BME280;16365;51.598;7.668;2023-07-24T01:01:41;99819.78;;;24.99;50.83
29383;BME280;16365;51.598;7.668;2023-07-24T01:04:10;99823.78;;;25.02;50.38
29383;BME280;16365;51.598;7.668;2023-07-24T01:06:36;99826.69;;;24.98;50.61
29383;BME280;16365;51.598;7.668;2023-07-24T01:09:03;99819.91;;;24.96;50.59
29383;BME280;16365;51.598;7.668;2023-07-24T01:11:46;99820.44;;;24.91;51.40
29383;BME280;16365;51.598;7.668;2023-07-24T01:16:42;99822.03;;;24.92;50.89
29383;BME280;16365;51.598;7.668;2023-07-24T01:27:28;99810.00;;;24.87;51.12
29383;BME280;16365;51.598;7.668;2023-07-24T01:29:54;99811.25;;;24.86;51.06
29383;BME280;16365;51.598;7.668;2023-07-24T01:32:21;99812.03;;;24.87;51.12
29383;BME280;16365;51.598;7.668;2023-07-24T01:34:51;99811.66;;;24.85;51.61
29383;BME280;16365;51.598;7.668;2023-07-24T01:37:20;99812.81;;;24.87;51.51
29383;BME280;16365;51.598;7.668;2023-07-24T01:39:47;99810.31;;;24.90;51.28
29383;BME280;16365;51.598;7.668;2023-07-24T01:42:14;99804.94;;;24.95;50.81
29383;BME280;16365;51.598;7.668;2023-07-24T01:44:40;99804.56;;;24.93;50.93
29383;BME280;16365;51.598;7.668;2023-07-24T01:47:07;99804.09;;;24.95;51.15
29383;BME280;16365;51.598;7.668;2023-07-24T01:49:34;99796.84;;;24.94;51.04
29383;BME280;16365;51.598;7.668;2023-07-24T01:52:05;99792.75;;;24.95;50.97
29383;BME280;16365;51.598;7.668;2023-07-24T01:54:32;99781.78;;;24.97;51.17
29383;BME280;16365;51.598;7.668;2023-07-24T01:56:59;99773.28;;;24.97;50.95
29383;BME280;16365;51.598;7.668;2023-07-24T01:59:25;99774.53;;;24.96;50.85
29383;BME280;16365;51.598;7.668;2023-07-24T02:01:52;99772.47;;;24.96;50.75
29383;BME280;16365;51.598;7.668;2023-07-24T02:04:18;99777.34;;;24.96;50.75
29383;BME280;16365;51.598;7.668;2023-07-24T02:06:49;99777.00;;;24.94;50.82
29383;BME280;16365;51.598;7.668;2023-07-24T02:09:17;99771.31;;;24.94;50.86
29383;BME280;16365;51.598;7.668;2023-07-24T02:11:44;99780.63;;;24.94;50.62
29383;BME280;16365;51.598;7.668;2023-07-24T02:14:12;99772.56;;;24.93;50.56
29383;BME280;16365;51.598;7.668;2023-07-24T02:16:39;99769.75;;;24.93;50.36
29383;BME280;16365;51.598;7.668;2023-07-24T02:19:06;99760.44;;;24.92;50.45
29383;BME280;16365;51.598;7.668;2023-07-24T02:21:33;99752.38;;;24.91;50.54
29383;BME280;16365;51.598;7.668;2023-07-24T02:24:00;99746.34;;;24.88;50.45
29383;BME280;16365;51.598;7.668;2023-07-24T02:26:26;99733.88;;;24.86;50.82
29383;BME280;16365;51.598;7.668;2023-07-24T02:28:54;99738.78;;;24.85;50.63
29383;BME280;16365;51.598;7.668;2023-07-24T02:31:20;99744.88;;;24.84;50.74
29383;BME280;16365;51.598;7.668;2023-07-24T02:33:47;99745.31;;;24.82;50.45
29383;BME280;16365;51.598;7.668;2023-07-24T02:36:15;99742.16;;;24.80;50.65
29383;BME280;16365;51.598;7.668;2023-07-24T02:38:41;99745.78;;;24.81;50.57
29383;BME280;16365;51.598;7.668;2023-07-24T02:41:08;99733.28;;;24.78;50.52
29383;BME280;16365;51.598;7.668;2023-07-24T02:43:34;99741.47;;;24.76;50.71
29383;BME280;16365;51.598;7.668;2023-07-24T02:46:02;99742.59;;;24.79;50.83
29383;BME280;16365;51.598;7.668;2023-07-24T02:48:29;99739.31;;;24.80;50.33
29383;BME280;16365;51.598;7.668;2023-07-24T02:50:56;99740.22;;;24.77;50.42
29383;BME280;16365;51.598;7.668;2023-07-24T02:53:22;99735.44;;;24.74;50.40
29383;BME280;16365;51.598;7.668;2023-07-24T02:55:49;99737.13;;;24.72;50.66
29383;BME280;16365;51.598;7.668;2023-07-24T02:58:16;99729.53;;;24.69;50.60
29383;BME280;16365;51.598;7.668;2023-07-24T03:00:42;99740.06;;;24.68;50.63
29383;BME280;16365;51.598;7.668;2023-07-24T03:03:09;99712.59;;;24.65;50.78
29383;BME280;16365;51.598;7.668;2023-07-24T03:05:36;99715.44;;;24.65;50.82
29383;BME280;16365;51.598;7.668;2023-07-24T03:08:03;99713.06;;;24.64;50.83
29383;BME280;16365;51.598;7.668;2023-07-24T03:10:31;99711.03;;;24.64;51.06
29383;BME280;16365;51.598;7.668;2023-07-24T03:12:58;99713.84;;;24.64;50.87
29383;BME280;16365;51.598;7.668;2023-07-24T03:15:24;99721.09;;;24.65;51.22
29383;BME280;16365;51.598;7.668;2023-07-24T03:17:51;99721.91;;;24.66;51.15
29383;BME280;16365;51.598;7.668;2023-07-24T03:20:19;99711.38;;;24.66;51.11
29383;BME280;16365;51.598;7.668;2023-07-24T03:22:47;99703.22;;;24.68;51.24
29383;BME280;16365;51.598;7.668;2023-07-24T03:25:13;99703.22;;;24.68;51.11
29383;BME280;16365;51.598;7.668;2023-07-24T03:27:40;99690.16;;;24.71;51.21
29383;BME280;16365;51.598;7.668;2023-07-24T03:30:07;99673.97;;;24.71;51.13
29383;BME280;16365;51.598;7.668;2023-07-24T03:32:36;99661.81;;;24.71;51.20
29383;BME280;16365;51.598;7.668;2023-07-24T03:35:05;99667.84;;;24.73;51.21
29383;BME280;16365;51.598;7.668;2023-07-24T03:37:34;99670.59;;;24.76;51.23
29383;BME280;16365;51.598;7.668;2023-07-24T03:40:02;99669.66;;;24.79;51.33
29383;BME280;16365;51.598;7.668;2023-07-24T03:42:30;99687.03;;;24.81;51.27
29383;BME280;16365;51.598;7.668;2023-07-24T03:44:57;99680.44;;;24.84;51.28
29383;BME280;16365;51.598;7.668;2023-07-24T03:47:24;99677.19;;;24.86;51.18
29383;BME280;16365;51.598;7.668;2023-07-24T03:49:51;99668.22;;;24.87;51.18
29383;BME280;16365;51.598;7.668;2023-07-24T03:52:18;99664.13;;;24.88;51.32
29383;BME280;16365;51.598;7.668;2023-07-24T03:54:45;99639.41;;;24.89;51.15
29383;BME280;16365;51.598;7.668;2023-07-24T03:57:11;99653.16;;;24.91;51.21
29383;BME280;16365;51.598;7.668;2023-07-24T03:59:38;99654.25;;;24.93;51.33
29383;BME280;16365;51.598;7.668;2023-07-24T04:02:05;99650.19;;;24.94;51.24
29383;BME280;16365;51.598;7.668;2023-07-24T04:04:37;99646.13;;;24.95;51.38
29383;BME280;16365;51.598;7.668;2023-07-24T04:07:04;99650.53;;;24.96;51.45
29383;BME280;16365;51.598;7.668;2023-07-24T04:09:31;99645.66;;;24.97;51.41
29383;BME280;16365;51.598;7.668;2023-07-24T04:11:58;99652.13;;;24.97;51.54
29383;BME280;16365;51.598;7.668;2023-07-24T04:14:24;99639.97;;;24.97;51.18
29383;BME280;16365;51.598;7.668;2023-07-24T04:16:51;99640.78;;;24.97;51.10
29383;BME280;16365;51.598;7.668;2023-07-24T04:19:18;99641.56;;;24.98;51.36
29383;BME280;16365;51.598;7.668;2023-07-24T04:21:44;99635.91;;;24.98;51.50
29383;BME280;16365;51.598;7.668;2023-07-24T04:24:12;99634.31;;;24.97;51.58
29383;BME280;16365;51.598;7.668;2023-07-24T04:26:39;99637.47;;;24.99;51.41
29383;BME280;16365;51.598;7.668;2023-07-24T04:29:06;99649.63;;;24.99;51.43
29383;BME280;16365;51.598;7.668;2023-07-24T04:31:34;99644.75;;;25.00;51.25
29383;BME280;16365;51.598;7.668;2023-07-24T04:34:00;99644.31;;;25.01;51.21
29383;BME280;16365;51.598;7.668;2023-07-24T04:36:27;99645.09;;;25.02;51.36
29383;BME280;16365;51.598;7.668;2023-07-24T04:38:54;99639.41;;;25.02;51.40
29383;BME280;16365;51.598;7.668;2023-07-24T04:41:21;99643.84;;;25.03;51.29
29383;BME280;16365;51.598;7.668;2023-07-24T04:43:48;99648.72;;;25.02;51.50
29383;BME280;16365;51.598;7.668;2023-07-24T04:46:15;99649.50;;;25.03;51.34
29383;BME280;16365;51.598;7.668;2023-07-24T04:48:42;99655.53;;;25.05;51.29
29383;BME280;16365;51.598;7.668;2023-07-24T04:51:08;99658.38;;;25.05;51.31
29383;BME280;16365;51.598;7.668;2023-07-24T04:53:35;99650.22;;;25.07;51.21
29383;BME280;16365;51.598;7.668;2023-07-24T04:56:03;99645.34;;;25.07;51.22
29383;BME280;16365;51.598;7.668;2023-07-24T04:58:30;99645.69;;;25.09;51.30
29383;BME280;16365;51.598;7.668;2023-07-24T05:00:56;99635.16;;;25.10;51.55
29383;BME280;16365;51.598;7.668;2023-07-24T05:03:23;99634.34;;;25.09;51.53
29383;BME280;16365;51.598;7.668;2023-07-24T05:05:55;99640.03;;;25.09;51.75
29383;BME280;16365;51.598;7.668;2023-07-24T05:08:23;99645.56;;;25.13;51.13
29383;BME280;16365;51.598;7.668;2023-07-24T05:10:57;99640.81;;;25.10;51.68
29383;BME280;16365;51.598;7.668;2023-07-24T05:13:25;99645.13;;;25.15;51.54
29383;BME280;16365;51.598;7.668;2023-07-24T05:15:52;99646.72;;;25.16;51.19
29383;BME280;16365;51.598;7.668;2023-07-24T05:18:19;99640.25;;;25.15;51.44
29383;BME280;16365;51.598;7.668;2023-07-24T05:20:46;99643.53;;;25.13;51.30
29383;BME280;16365;51.598;7.668;2023-07-24T05:23:14;99650.44;;;25.12;51.71
29383;BME280;16365;51.598;7.668;2023-07-24T05:25:41;99648.88;;;25.11;51.79
29383;BME280;16365;51.598;7.668;2023-07-24T05:28:08;99663.50;;;25.10;51.67
29383;BME280;16365;51.598;7.668;2023-07-24T05:30:34;99660.69;;;25.10;51.73
29383;BME280;16365;51.598;7.668;2023-07-24T05:33:01;99657.47;;;25.08;51.86
29383;BME280;16365;51.598;7.668;2023-07-24T05:35:28;99654.66;;;25.08;51.86
29383;BME280;16365;51.598;7.668;2023-07-24T05:37:54;99658.72;;;25.07;51.93
29383;BME280;16365;51.598;7.668;2023-07-24T05:40:21;99665.63;;;25.06;51.97
29383;BME280;16365;51.598;7.668;2023-07-24T05:42:47;99668.09;;;25.04;51.79
29383;BME280;16365;51.598;7.668;2023-07-24T05:45:14;99671.41;;;25.02;52.04
29383;BME280;16365;51.598;7.668;2023-07-24T05:47:41;99669.03;;;25.01;52.48
29383;BME280;16365;51.598;7.668;2023-07-24T05:50:08;99662.56;;;25.00;52.43
29383;BME280;16365;51.598;7.668;2023-07-24T05:52:35;99656.53;;;24.98;52.39
29383;BME280;16365;51.598;7.668;2023-07-24T05:55:01;99665.03;;;24.98;52.59
29383;BME280;16365;51.598;7.668;2023-07-24T05:57:29;99665.84;;;24.99;52.48
29383;BME280;16365;51.598;7.668;2023-07-24T05:59:55;99672.28;;;24.99;52.52
29383;BME280;16365;51.598;7.668;2023-07-24T06:02:22;99684.00;;;25.01;52.71
29383;BME280;16365;51.598;7.668;2023-07-24T06:04:48;99681.50;;;25.03;52.57
29383;BME280;16365;51.598;7.668;2023-07-24T06:07:15;99681.06;;;25.05;52.67
29383;BME280;16365;51.598;7.668;2023-07-24T06:09:41;99689.94;;;25.07;52.85
29383;BME280;16365;51.598;7.668;2023-07-24T06:12:08;99685.06;;;25.07;52.66
29383;BME280;16365;51.598;7.668;2023-07-24T06:14:37;99688.25;;;25.09;52.42
29383;BME280;16365;51.598;7.668;2023-07-24T06:17:03;99694.72;;;25.10;52.56
29383;BME280;16365;51.598;7.668;2023-07-24T06:19:30;99699.91;;;25.11;52.50
29383;BME280;16365;51.598;7.668;2023-07-24T06:21:57;99688.91;;;25.13;52.78
29383;BME280;16365;51.598;7.668;2023-07-24T06:24:24;99684.84;;;25.15;52.62
29383;BME280;16365;51.598;7.668;2023-07-24T06:26:50;99690.06;;;25.16;52.60
29383;BME280;16365;51.598;7.668;2023-07-24T06:29:17;99685.19;;;25.17;52.52
29383;BME280;16365;51.598;7.668;2023-07-24T06:31:44;99682.22;;;25.20;52.92
29383;BME280;16365;51.598;7.668;2023-07-24T06:34:12;99684.59;;;25.22;53.08
29383;BME280;16365;51.598;7.668;2023-07-24T06:36:38;99698.22;;;25.27;52.98
29383;BME280;16365;51.598;7.668;2023-07-24T06:39:05;99696.06;;;25.31;52.72
29383;BME280;16365;51.598;7.668;2023-07-24T06:41:31;99698.81;;;25.34;52.55
29383;BME280;16365;51.598;7.668;2023-07-24T06:43:58;99688.56;;;25.37;52.61
29383;BME280;16365;51.598;7.668;2023-07-24T06:46:24;99696.66;;;25.38;52.79
29383;BME280;16365;51.598;7.668;2023-07-24T06:48:51;99703.78;;;25.43;52.80
29383;BME280;16365;51.598;7.668;2023-07-24T06:51:17;99704.47;;;25.47;53.10
29383;BME280;16365;51.598;7.668;2023-07-24T06:53:44;99699.81;;;25.53;52.97
29383;BME280;16365;51.598;7.668;2023-07-24T06:56:11;99695.63;;;25.58;52.57
29383;BME280;16365;51.598;7.668;2023-07-24T06:58:37;99704.00;;;25.61;52.24
29383;BME280;16365;51.598;7.668;2023-07-24T07:01:07;99685.72;;;25.62;52.43
29383;BME280;16365;51.598;7.668;2023-07-24T07:03:34;99687.19;;;25.67;52.54
29383;BME280;16365;51.598;7.668;2023-07-24T07:06:01;99688.78;;;25.68;52.59
29383;BME280;16365;51.598;7.668;2023-07-24T07:08:32;99688.66;;;25.72;52.86
29383;BME280;16365;51.598;7.668;2023-07-24T07:11:00;99683.25;;;25.77;52.98
29383;BME280;16365;51.598;7.668;2023-07-24T07:13:27;99673.66;;;25.84;52.18
29383;BME280;16365;51.598;7.668;2023-07-24T07:15:53;99673.88;;;25.89;52.38
29383;BME280;16365;51.598;7.668;2023-07-24T07:18:20;99669.66;;;25.94;52.42
29383;BME280;16365;51.598;7.668;2023-07-24T07:20:51;99676.50;;;25.97;52.23
29383;BME280;16365;51.598;7.668;2023-07-24T07:23:19;99668.50;;;26.04;51.94
29383;BME280;16365;51.598;7.668;2023-07-24T07:25:46;99673.16;;;26.11;52.13
29383;BME280;16365;51.598;7.668;2023-07-24T07:28:16;99675.72;;;26.18;52.21
29383;BME280;16365;51.598;7.668;2023-07-24T07:30:43;99677.06;;;26.26;51.84
29383;BME280;16365;51.598;7.668;2023-07-24T07:33:11;99673.47;;;26.35;51.63
29383;BME280;16365;51.598;7.668;2023-07-24T07:35:38;99666.31;;;26.43;51.66
29383;BME280;16365;51.598;7.668;2023-07-24T07:38:04;99667.66;;;26.51;51.82
29383;BME280;16365;51.598;7.668;2023-07-24T07:40:31;99677.50;;;26.59;51.50
29383;BME280;16365;51.598;7.668;2023-07-24T07:42:57;99676.75;;;26.68;50.69
29383;BME280;16365;51.598;7.668;2023-07-24T07:45:24;99670.03;;;26.75;50.88
29383;BME280;16365;51.598;7.668;2023-07-24T07:47:51;99665.31;;;26.81;50.19
29383;BME280;16365;51.598;7.668;2023-07-24T07:50:19;99657.44;;;26.85;49.74
29383;BME280;16365;51.598;7.668;2023-07-24T07:52:49;99658.09;;;26.89;49.63
29383;BME280;16365;51.598;7.668;2023-07-24T07:55:18;99654.63;;;26.94;49.85
29383;BME280;16365;51.598;7.668;2023-07-24T07:57:44;99667.00;;;27.00;49.76
29383;BME280;16365;51.598;7.668;2023-07-24T08:00:11;99651.84;;;27.03;49.66
29383;BME280;16365;51.598;7.668;2023-07-24T08:02:38;99650.88;;;27.06;49.39
29383;BME280;16365;51.598;7.668;2023-07-24T08:05:10;99653.31;;;27.08;48.69
29383;BME280;16365;51.598;7.668;2023-07-24T08:07:46;99657.56;;;27.12;48.73
29383;BME280;16365;51.598;7.668;2023-07-24T08:10:12;99662.03;;;27.13;48.61
29383;BME280;16365;51.598;7.668;2023-07-24T08:12:43;99667.72;;;27.13;48.16
29383;BME280;16365;51.598;7.668;2023-07-24T08:15:10;99666.59;;;27.11;48.09
29383;BME280;16365;51.598;7.668;2023-07-24T08:17:37;99667.19;;;27.06;47.87
29383;BME280;16365;51.598;7.668;2023-07-24T08:20:04;99671.09;;;26.99;47.93
29383;BME280;16365;51.598;7.668;2023-07-24T08:22:31;99665.22;;;26.94;47.90
29383;BME280;16365;51.598;7.668;2023-07-24T08:24:58;99666.63;;;26.89;47.69
29383;BME280;16365;51.598;7.668;2023-07-24T08:27:24;99666.41;;;26.83;47.92
29383;BME280;16365;51.598;7.668;2023-07-24T08:29:51;99663.72;;;26.80;47.94
29383;BME280;16365;51.598;7.668;2023-07-24T08:32:19;99654.53;;;26.76;47.70
29383;BME280;16365;51.598;7.668;2023-07-24T08:34:46;99653.56;;;26.70;47.81
29383;BME280;16365;51.598;7.668;2023-07-24T08:37:12;99652.91;;;26.65;47.94
29383;BME280;16365;51.598;7.668;2023-07-24T08:39:39;99655.06;;;26.61;48.07
29383;BME280;16365;51.598;7.668;2023-07-24T08:42:12;99636.25;;;26.55;48.35
29383;BME280;16365;51.598;7.668;2023-07-24T08:44:39;99638.16;;;26.58;48.53
29383;BME280;16365;51.598;7.668;2023-07-24T08:47:10;99643.84;;;26.58;48.56
29383;BME280;16365;51.598;7.668;2023-07-24T08:49:39;99643.22;;;26.63;49.46
29383;BME280;16365;51.598;7.668;2023-07-24T08:52:09;99640.78;;;26.74;50.34
29383;BME280;16365;51.598;7.668;2023-07-24T08:54:54;99646.56;;;26.92;49.75
29383;BME280;16365;51.598;7.668;2023-07-24T08:57:21;99640.06;;;27.14;49.30
29383;BME280;16365;51.598;7.668;2023-07-24T08:59:47;99647.41;;;27.33;49.11
29383;BME280;16365;51.598;7.668;2023-07-24T09:02:14;99650.31;;;27.52;48.63
29383;BME280;16365;51.598;7.668;2023-07-24T09:04:40;99640.56;;;27.71;48.43
29383;BME280;16365;51.598;7.668;2023-07-24T09:07:07;99644.25;;;27.90;48.69
29383;BME280;16365;51.598;7.668;2023-07-24T09:09:33;99644.22;;;28.08;47.43
29383;BME280;16365;51.598;7.668;2023-07-24T09:12:00;99630.91;;;28.24;46.59
29383;BME280;16365;51.598;7.668;2023-07-24T09:14:28;99638.69;;;28.32;45.58
29383;BME280;16365;51.598;7.668;2023-07-24T09:17:05;99643.78;;;28.37;44.42
29383;BME280;16365;51.598;7.668;2023-07-24T09:19:33;99631.13;;;28.38;44.78
29383;BME280;16365;51.598;7.668;2023-07-24T09:22:14;99639.66;;;28.29;44.49
29383;BME280;16365;51.598;7.668;2023-07-24T09:24:51;99648.34;;;28.26;44.23
29383;BME280;16365;51.598;7.668;2023-07-24T09:27:19;99640.28;;;28.24;44.60
29383;BME280;16365;51.598;7.668;2023-07-24T09:29:46;99651.06;;;28.20;44.55
29383;BME280;16365;51.598;7.668;2023-07-24T09:32:20;99646.63;;;28.10;43.92
29383;BME280;16365;51.598;7.668;2023-07-24T09:34:48;99643.94;;;28.06;44.43
29383;BME280;16365;51.598;7.668;2023-07-24T09:37:27;99635.84;;;27.96;44.50
29383;BME280;16365;51.598;7.668;2023-07-24T09:39:54;99640.91;;;27.91;45.00
29383;BME280;16365;51.598;7.668;2023-07-24T09:42:31;99641.53;;;27.77;46.02
29383;BME280;16365;51.598;7.668;2023-07-24T09:44:58;99640.88;;;27.73;45.66
29383;BME280;16365;51.598;7.668;2023-07-24T09:47:25;99631.50;;;27.63;45.97
29383;BME280;16365;51.598;7.668;2023-07-24T09:50:12;99632.75;;;27.53;46.30
29383;BME280;16365;51.598;7.668;2023-07-24T09:52:40;99634.78;;;27.44;46.61
29383;BME280;16365;51.598;7.668;2023-07-24T09:55:11;99632.38;;;27.33;47.15
29383;BME280;16365;51.598;7.668;2023-07-24T09:57:40;99632.53;;;27.29;46.96
29383;BME280;16365;51.598;7.668;2023-07-24T10:00:08;99630.28;;;27.24;47.35
29383;BME280;16365;51.598;7.668;2023-07-24T10:02:36;99630.78;;;27.23;47.91
29383;BME280;16365;51.598;7.668;2023-07-24T10:05:03;99634.41;;;27.23;47.61
29383;BME280;16365;51.598;7.668;2023-07-24T10:07:30;99636.47;;;27.23;47.30
29383;BME280;16365;51.598;7.668;2023-07-24T10:09:58;99626.31;;;27.22;47.12
29383;BME280;16365;51.598;7.668;2023-07-24T10:12:25;99626.78;;;27.20;47.15
29383;BME280;16365;51.598;7.668;2023-07-24T10:14:55;99619.84;;;27.21;46.85
29383;BME280;16365;51.598;7.668;2023-07-24T10:17:41;99616.34;;;27.17;47.13
29383;BME280;16365;51.598;7.668;2023-07-24T10:20:12;99616.53;;;27.23;47.00
29383;BME280;16365;51.598;7.668;2023-07-24T10:22:43;99603.09;;;27.23;46.09
29383;BME280;16365;51.598;7.668;2023-07-24T10:25:10;99600.56;;;27.25;46.59
29383;BME280;16365;51.598;7.668;2023-07-24T10:27:47;99601.84;;;27.24;45.67
29383;BME280;16365;51.598;7.668;2023-07-24T10:30:15;99595.03;;;27.31;45.94
29383;BME280;16365;51.598;7.668;2023-07-24T10:33:10;99589.81;;;27.29;46.06
29383;BME280;16365;51.598;7.668;2023-07-24T10:35:45;99592.53;;;27.33;46.51
29383;BME280;16365;51.598;7.668;2023-07-24T10:38:14;99603.13;;;27.32;46.30
29383;BME280;16365;51.598;7.668;2023-07-24T10:40:42;99607.06;;;27.35;46.34
29383;BME280;16365;51.598;7.668;2023-07-24T10:43:12;99605.00;;;27.35;46.34
29383;BME280;16365;51.598;7.668;2023-07-24T10:45:47;99605.81;;;27.36;46.49
29383;BME280;16365;51.598;7.668;2023-07-24T10:48:21;99612.16;;;27.40;46.46
29383;BME280;16365;51.598;7.668;2023-07-24T10:50:50;99615.63;;;27.44;46.18
29383;BME280;16365;51.598;7.668;2023-07-24T10:53:21;99610.13;;;27.50;45.91
29383;BME280;16365;51.598;7.668;2023-07-24T10:55:50;99610.44;;;27.52;45.67
29383;BME280;16365;51.598;7.668;2023-07-24T10:58:17;99613.59;;;27.54;45.52
29383;BME280;16365;51.598;7.668;2023-07-24T11:00:45;99606.34;;;27.53;45.41
29383;BME280;16365;51.598;7.668;2023-07-24T11:03:14;99615.34;;;27.51;45.05
29383;BME280;16365;51.598;7.668;2023-07-24T11:05:42;99619.94;;;27.49;45.04
29383;BME280;16365;51.598;7.668;2023-07-24T11:08:14;99618.34;;;27.48;45.29
29383;BME280;16365;51.598;7.668;2023-07-24T11:10:46;99611.53;;;27.45;45.22
29383;BME280;16365;51.598;7.668;2023-07-24T11:13:14;99606.16;;;27.47;45.67
29383;BME280;16365;51.598;7.668;2023-07-24T11:15:41;99596.66;;;27.50;45.90
29383;BME280;16365;51.598;7.668;2023-07-24T11:18:07;99586.72;;;27.55;45.79
29383;BME280;16365;51.598;7.668;2023-07-24T11:20:45;99580.09;;;27.58;45.10
29383;BME280;16365;51.598;7.668;2023-07-24T11:23:16;99580.41;;;27.69;45.31
29383;BME280;16365;51.598;7.668;2023-07-24T11:25:44;99582.00;;;27.79;45.44
29383;BME280;16365;51.598;7.668;2023-07-24T11:28:12;99569.03;;;27.87;45.40
29383;BME280;16365;51.598;7.668;2023-07-24T11:30:42;99566.19;;;27.97;45.09
29383;BME280;16365;51.598;7.668;2023-07-24T11:33:12;99579.16;;;28.07;45.14
29383;BME280;16365;51.598;7.668;2023-07-24T11:35:44;99577.88;;;28.17;44.98
29383;BME280;16365;51.598;7.668;2023-07-24T11:38:11;99571.06;;;28.24;44.32
29383;BME280;16365;51.598;7.668;2023-07-24T11:40:42;99572.97;;;28.27;43.77
29383;BME280;16365;51.598;7.668;2023-07-24T11:43:21;99583.56;;;28.26;43.83
29383;BME280;16365;51.598;7.668;2023-07-24T11:45:50;99586.72;;;28.28;43.57
29383;BME280;16365;51.598;7.668;2023-07-24T11:48:21;99566.97;;;28.25;43.83
29383;BME280;16365;51.598;7.668;2023-07-24T11:50:49;99572.53;;;28.19;44.16
29383;BME280;16365;51.598;7.668;2023-07-24T11:53:28;99569.69;;;28.10;44.52
29383;BME280;16365;51.598;7.668;2023-07-24T11:55:57;99557.00;;;28.02;44.50
29383;BME280;16365;51.598;7.668;2023-07-24T11:58:30;99549.41;;;27.89;45.00
29383;BME280;16365;51.598;7.668;2023-07-24T12:00:58;99548.31;;;27.78;44.67
29383;BME280;16365;51.598;7.668;2023-07-24T12:03:27;99556.03;;;27.68;45.25
29383;BME280;16365;51.598;7.668;2023-07-24T12:05:55;99561.88;;;27.55;45.41
29383;BME280;16365;51.598;7.668;2023-07-24T12:08:30;99552.69;;;27.42;46.16
29383;BME280;16365;51.598;7.668;2023-07-24T12:10:57;99554.56;;;27.36;46.26
29383;BME280;16365;51.598;7.668;2023-07-24T12:13:24;99552.97;;;27.26;46.33
29383;BME280;16365;51.598;7.668;2023-07-24T12:15:51;99548.03;;;27.17;46.70
29383;BME280;16365;51.598;7.668;2023-07-24T12:18:18;99557.38;;;27.08;46.96
29383;BME280;16365;51.598;7.668;2023-07-24T12:20:45;99557.13;;;27.03;47.07
29383;BME280;16365;51.598;7.668;2023-07-24T12:23:12;99575.31;;;26.96;47.37
29383;BME280;16365;51.598;7.668;2023-07-24T12:25:38;99592.19;;;26.90;47.21
29383;BME280;16365;51.598;7.668;2023-07-24T12:28:05;99613.19;;;26.84;47.43
29383;BME280;16365;51.598;7.668;2023-07-24T12:30:31;99631.31;;;26.77;47.38
29383;BME280;16365;51.598;7.668;2023-07-24T12:32:58;99631.59;;;26.70;47.77
29383;BME280;16365;51.598;7.668;2023-07-24T12:35:25;99650.66;;;26.60;47.84
29383;BME280;16365;51.598;7.668;2023-07-24T12:37:51;99661.63;;;26.49;46.49
29383;BME280;16365;51.598;7.668;2023-07-24T12:40:18;99652.78;;;26.34;45.68
29383;BME280;16365;51.598;7.668;2023-07-24T12:42:44;99643.81;;;26.14;45.01
29383;BME280;16365;51.598;7.668;2023-07-24T12:45:11;99628.44;;;25.89;45.04
29383;BME280;16365;51.598;7.668;2023-07-24T12:47:37;99625.97;;;25.66;45.28
29383;BME280;16365;51.598;7.668;2023-07-24T12:50:04;99628.75;;;25.44;45.99
29383;BME280;16365;51.598;7.668;2023-07-24T12:52:33;99605.84;;;25.26;46.18
29383;BME280;16365;51.598;7.668;2023-07-24T12:55:01;99584.88;;;25.10;46.70
29383;BME280;16365;51.598;7.668;2023-07-24T12:57:29;99588.47;;;24.98;47.29
29383;BME280;16365;51.598;7.668;2023-07-24T12:59:57;99571.03;;;24.87;47.45
29383;BME280;16365;51.598;7.668;2023-07-24T13:02:23;99557.06;;;24.80;47.90
29383;BME280;16365;51.598;7.668;2023-07-24T13:04:50;99534.50;;;24.76;48.33
29383;BME280;16365;51.598;7.668;2023-07-24T13:07:17;99525.66;;;24.74;48.10
29383;BME280;16365;51.598;7.668;2023-07-24T13:09:44;99530.53;;;24.74;48.46
29383;BME280;16365;51.598;7.668;2023-07-24T13:12:11;99550.59;;;24.79;48.80
29383;BME280;16365;51.598;7.668;2023-07-24T13:14:40;99566.72;;;24.82;49.08